Huvudsida
METAR-TAF:

METAR-TAF

Flygplatser :

Rigas internationella flygplats

Riga, Lettland

latitud: 56-55N, longitud: 023-58E, höjd: 10 m

Aktuellt väderrapport

Denna rapport gjordes för 19 minuter sedan, klockan 18:50 UTC
Vind 6 kt från nord/nordväst, varierande mellan väst/nordväst och nord
Temperatur 7°C
Fuktighet 70%
Tryck 1026 hPa
Sikt 10 km eller mer
Inga moln under 1 500 m eller inga cumulonimbus

METAR: EVRA 201850Z 34006KT 300V010 CAVOK 07/02 Q1026 NOSIG

Tid: 22:09 (19:09 UTC)

Väderprognos

Denna rapport gjordes för 1 timme och 59 minuter sedan, klockan 17:10 UTC
Prognos gäller från 20 kl. 18 UTC till 21 kl. 18 UTC
Vind 5 kt från nord
Sikt 10 km eller mer
Spridda moln på en höjd av 4000 ft
Blir
från 21 kl. 08 UTC till 21 kl. 10 UTC
Vind 9 kt från ost/nordost

TAF: EVRA 201710Z 2018/2118 36005KT 9999 SCT040 BECMG 2108/2110 07009KT

Aktuella väderrapporter och prognoser från 4000 flygplatser (METAR- och TAF-rapporter).

De tillgängliga stationerna syns som gula och röda prickar på kartan.

För musen över prickarna för att se namnen på stationerna.

Klicka sedan för att få väderrapporter och prognoser.

För att ändra kartan: Klicka på de gröna knapparna med ett svart kors på för att zooma in; den gröna knappen med ett streck på för att zooma ut; eller på de gröna pilarna för angränsande kartor.


METAR-TAF: